sensor_id;sensor_type;location;lat;lon;timestamp;P1;durP1;ratioP1;P2;durP2;ratioP2
7426;SDS011;3755;59.316;18.092;2022-12-18T00:00:58;19.87;;;10.13;;
7426;SDS011;3755;59.316;18.092;2022-12-18T00:03:40;10.53;;;5.77;;
7426;SDS011;3755;59.316;18.092;2022-12-18T00:06:12;13.43;;;6.47;;
7426;SDS011;3755;59.316;18.092;2022-12-18T00:08:46;17.63;;;9.43;;
7426;SDS011;3755;59.316;18.092;2022-12-18T00:11:20;18.13;;;10.00;;
7426;SDS011;3755;59.316;18.092;2022-12-18T00:13:50;13.97;;;6.70;;
7426;SDS011;3755;59.316;18.092;2022-12-18T00:16:20;13.83;;;7.20;;
7426;SDS011;3755;59.316;18.092;2022-12-18T00:18:50;15.80;;;9.03;;
7426;SDS011;3755;59.316;18.092;2022-12-18T00:21:19;16.90;;;9.57;;
7426;SDS011;3755;59.316;18.092;2022-12-18T00:24:01;14.87;;;7.60;;
7426;SDS011;3755;59.316;18.092;2022-12-18T00:26:46;15.63;;;9.57;;
7426;SDS011;3755;59.316;18.092;2022-12-18T00:29:40;19.43;;;9.10;;
7426;SDS011;3755;59.316;18.092;2022-12-18T00:32:08;19.80;;;9.70;;
7426;SDS011;3755;59.316;18.092;2022-12-18T00:34:38;14.87;;;6.23;;
7426;SDS011;3755;59.316;18.092;2022-12-18T00:37:07;9.47;;;5.03;;
7426;SDS011;3755;59.316;18.092;2022-12-18T00:39:35;15.33;;;9.07;;
7426;SDS011;3755;59.316;18.092;2022-12-18T00:48:42;18.37;;;8.17;;
7426;SDS011;3755;59.316;18.092;2022-12-18T00:51:13;17.20;;;7.47;;
7426;SDS011;3755;59.316;18.092;2022-12-18T00:53:54;15.73;;;9.20;;
7426;SDS011;3755;59.316;18.092;2022-12-18T00:56:22;16.07;;;9.60;;
7426;SDS011;3755;59.316;18.092;2022-12-18T00:58:50;13.53;;;7.53;;
7426;SDS011;3755;59.316;18.092;2022-12-18T01:01:33;16.30;;;9.37;;
7426;SDS011;3755;59.316;18.092;2022-12-18T01:04:04;16.63;;;8.43;;
7426;SDS011;3755;59.316;18.092;2022-12-18T01:06:42;17.53;;;9.13;;
7426;SDS011;3755;59.316;18.092;2022-12-18T01:09:09;17.83;;;8.93;;
7426;SDS011;3755;59.316;18.092;2022-12-18T01:11:53;17.47;;;9.07;;
7426;SDS011;3755;59.316;18.092;2022-12-18T01:14:31;14.60;;;7.47;;
7426;SDS011;3755;59.316;18.092;2022-12-18T01:17:03;18.23;;;10.33;;
7426;SDS011;3755;59.316;18.092;2022-12-18T01:19:34;20.37;;;9.70;;
7426;SDS011;3755;59.316;18.092;2022-12-18T01:22:02;16.70;;;8.40;;
7426;SDS011;3755;59.316;18.092;2022-12-18T01:24:33;17.87;;;9.57;;
7426;SDS011;3755;59.316;18.092;2022-12-18T01:27:00;16.37;;;9.03;;
7426;SDS011;3755;59.316;18.092;2022-12-18T01:29:28;15.80;;;7.90;;
7426;SDS011;3755;59.316;18.092;2022-12-18T01:31:57;14.77;;;8.03;;
7426;SDS011;3755;59.316;18.092;2022-12-18T01:34:30;15.83;;;8.57;;
7426;SDS011;3755;59.316;18.092;2022-12-18T01:37:04;19.93;;;9.77;;
7426;SDS011;3755;59.316;18.092;2022-12-18T01:39:31;16.47;;;9.33;;
7426;SDS011;3755;59.316;18.092;2022-12-18T01:42:14;18.67;;;9.67;;
7426;SDS011;3755;59.316;18.092;2022-12-18T01:44:57;12.97;;;6.83;;
7426;SDS011;3755;59.316;18.092;2022-12-18T01:47:27;14.17;;;8.43;;
7426;SDS011;3755;59.316;18.092;2022-12-18T01:50:00;16.83;;;9.23;;
7426;SDS011;3755;59.316;18.092;2022-12-18T01:52:33;16.53;;;9.53;;
7426;SDS011;3755;59.316;18.092;2022-12-18T01:55:03;21.03;;;9.43;;
7426;SDS011;3755;59.316;18.092;2022-12-18T01:57:33;14.10;;;8.93;;
7426;SDS011;3755;59.316;18.092;2022-12-18T02:00:03;17.27;;;10.07;;
7426;SDS011;3755;59.316;18.092;2022-12-18T02:02:40;18.70;;;9.53;;
7426;SDS011;3755;59.316;18.092;2022-12-18T02:05:11;21.57;;;9.87;;
7426;SDS011;3755;59.316;18.092;2022-12-18T02:07:43;13.90;;;7.90;;
7426;SDS011;3755;59.316;18.092;2022-12-18T02:10:20;18.03;;;8.10;;
7426;SDS011;3755;59.316;18.092;2022-12-18T02:12:55;14.30;;;8.20;;
7426;SDS011;3755;59.316;18.092;2022-12-18T02:15:30;17.53;;;10.10;;
7426;SDS011;3755;59.316;18.092;2022-12-18T02:18:04;21.17;;;9.70;;
7426;SDS011;3755;59.316;18.092;2022-12-18T02:20:41;15.07;;;6.93;;
7426;SDS011;3755;59.316;18.092;2022-12-18T02:23:17;16.67;;;9.37;;
7426;SDS011;3755;59.316;18.092;2022-12-18T02:26:12;18.67;;;10.23;;
7426;SDS011;3755;59.316;18.092;2022-12-18T02:29:01;13.97;;;8.40;;
7426;SDS011;3755;59.316;18.092;2022-12-18T02:31:35;15.90;;;9.70;;
7426;SDS011;3755;59.316;18.092;2022-12-18T02:34:09;15.80;;;9.53;;
7426;SDS011;3755;59.316;18.092;2022-12-18T02:36:52;16.33;;;8.07;;
7426;SDS011;3755;59.316;18.092;2022-12-18T02:39:26;19.70;;;9.50;;
7426;SDS011;3755;59.316;18.092;2022-12-18T02:42:00;16.57;;;8.83;;
7426;SDS011;3755;59.316;18.092;2022-12-18T02:44:34;17.37;;;7.67;;
7426;SDS011;3755;59.316;18.092;2022-12-18T02:47:02;19.07;;;9.70;;
7426;SDS011;3755;59.316;18.092;2022-12-18T02:49:34;17.63;;;9.93;;
7426;SDS011;3755;59.316;18.092;2022-12-18T02:52:12;19.13;;;11.07;;
7426;SDS011;3755;59.316;18.092;2022-12-18T02:54:55;18.03;;;9.13;;
7426;SDS011;3755;59.316;18.092;2022-12-18T02:57:39;18.73;;;9.67;;
7426;SDS011;3755;59.316;18.092;2022-12-18T03:00:28;13.73;;;7.77;;
7426;SDS011;3755;59.316;18.092;2022-12-18T03:03:02;17.67;;;9.63;;
7426;SDS011;3755;59.316;18.092;2022-12-18T03:05:36;16.57;;;8.67;;
7426;SDS011;3755;59.316;18.092;2022-12-18T03:08:21;13.13;;;6.53;;
7426;SDS011;3755;59.316;18.092;2022-12-18T03:10:55;12.30;;;7.50;;
7426;SDS011;3755;59.316;18.092;2022-12-18T03:13:30;10.53;;;6.60;;
7426;SDS011;3755;59.316;18.092;2022-12-18T03:16:00;13.77;;;8.07;;
7426;SDS011;3755;59.316;18.092;2022-12-18T03:18:37;15.73;;;8.83;;
7426;SDS011;3755;59.316;18.092;2022-12-18T03:21:24;11.53;;;6.23;;
7426;SDS011;3755;59.316;18.092;2022-12-18T03:23:55;11.93;;;7.47;;
7426;SDS011;3755;59.316;18.092;2022-12-18T03:26:24;14.13;;;8.33;;
7426;SDS011;3755;59.316;18.092;2022-12-18T03:29:12;4.07;;;2.83;;
7426;SDS011;3755;59.316;18.092;2022-12-18T03:31:51;10.77;;;5.77;;
7426;SDS011;3755;59.316;18.092;2022-12-18T03:34:25;15.93;;;7.70;;
7426;SDS011;3755;59.316;18.092;2022-12-18T03:37:10;13.57;;;7.77;;
7426;SDS011;3755;59.316;18.092;2022-12-18T03:39:48;12.33;;;7.83;;
7426;SDS011;3755;59.316;18.092;2022-12-18T03:42:15;12.40;;;6.27;;
7426;SDS011;3755;59.316;18.092;2022-12-18T03:45:06;15.17;;;8.13;;
7426;SDS011;3755;59.316;18.092;2022-12-18T03:47:41;14.03;;;7.37;;
7426;SDS011;3755;59.316;18.092;2022-12-18T03:50:18;10.47;;;6.17;;
7426;SDS011;3755;59.316;18.092;2022-12-18T03:52:51;13.30;;;7.60;;
7426;SDS011;3755;59.316;18.092;2022-12-18T03:55:22;11.10;;;7.73;;
7426;SDS011;3755;59.316;18.092;2022-12-18T03:57:54;18.10;;;8.73;;
7426;SDS011;3755;59.316;18.092;2022-12-18T04:00:27;13.37;;;6.97;;
7426;SDS011;3755;59.316;18.092;2022-12-18T04:02:57;13.67;;;7.53;;
7426;SDS011;3755;59.316;18.092;2022-12-18T04:05:27;9.37;;;4.33;;
7426;SDS011;3755;59.316;18.092;2022-12-18T04:07:57;11.70;;;5.63;;
7426;SDS011;3755;59.316;18.092;2022-12-18T04:10:25;13.67;;;7.07;;
7426;SDS011;3755;59.316;18.092;2022-12-18T04:12:55;13.53;;;7.37;;
7426;SDS011;3755;59.316;18.092;2022-12-18T04:15:23;13.40;;;6.37;;
7426;SDS011;3755;59.316;18.092;2022-12-18T04:17:54;14.53;;;8.20;;
7426;SDS011;3755;59.316;18.092;2022-12-18T04:20:21;12.53;;;6.87;;
7426;SDS011;3755;59.316;18.092;2022-12-18T04:22:49;13.93;;;8.00;;
7426;SDS011;3755;59.316;18.092;2022-12-18T04:25:17;15.50;;;8.10;;
7426;SDS011;3755;59.316;18.092;2022-12-18T04:27:45;12.23;;;8.17;;
7426;SDS011;3755;59.316;18.092;2022-12-18T04:30:12;10.97;;;7.40;;
7426;SDS011;3755;59.316;18.092;2022-12-18T04:32:40;14.83;;;7.70;;
7426;SDS011;3755;59.316;18.092;2022-12-18T04:35:09;14.60;;;7.93;;
7426;SDS011;3755;59.316;18.092;2022-12-18T04:37:37;12.73;;;8.17;;
7426;SDS011;3755;59.316;18.092;2022-12-18T04:40:04;10.97;;;6.37;;
7426;SDS011;3755;59.316;18.092;2022-12-18T04:42:34;13.07;;;8.30;;
7426;SDS011;3755;59.316;18.092;2022-12-18T04:45:03;13.87;;;7.50;;
7426;SDS011;3755;59.316;18.092;2022-12-18T04:47:31;12.60;;;7.20;;
7426;SDS011;3755;59.316;18.092;2022-12-18T04:49:59;12.77;;;7.10;;
7426;SDS011;3755;59.316;18.092;2022-12-18T04:52:29;7.37;;;3.63;;
7426;SDS011;3755;59.316;18.092;2022-12-18T04:55:00;9.37;;;5.00;;
7426;SDS011;3755;59.316;18.092;2022-12-18T04:57:31;8.90;;;4.97;;
7426;SDS011;3755;59.316;18.092;2022-12-18T04:59:59;8.90;;;5.53;;
7426;SDS011;3755;59.316;18.092;2022-12-18T05:02:26;9.97;;;5.43;;
7426;SDS011;3755;59.316;18.092;2022-12-18T05:04:53;15.13;;;7.73;;
7426;SDS011;3755;59.316;18.092;2022-12-18T05:07:20;11.67;;;7.80;;
7426;SDS011;3755;59.316;18.092;2022-12-18T05:09:50;11.20;;;7.03;;
7426;SDS011;3755;59.316;18.092;2022-12-18T05:12:17;16.40;;;7.90;;
7426;SDS011;3755;59.316;18.092;2022-12-18T05:14:44;9.20;;;4.07;;
7426;SDS011;3755;59.316;18.092;2022-12-18T05:17:12;13.30;;;7.13;;
7426;SDS011;3755;59.316;18.092;2022-12-18T05:19:39;12.40;;;6.37;;
7426;SDS011;3755;59.316;18.092;2022-12-18T05:22:07;12.50;;;6.23;;
7426;SDS011;3755;59.316;18.092;2022-12-18T05:24:34;17.33;;;8.23;;
7426;SDS011;3755;59.316;18.092;2022-12-18T05:27:03;13.20;;;7.10;;
7426;SDS011;3755;59.316;18.092;2022-12-18T05:29:32;14.70;;;8.40;;
7426;SDS011;3755;59.316;18.092;2022-12-18T05:31:59;14.10;;;7.23;;
7426;SDS011;3755;59.316;18.092;2022-12-18T05:34:26;13.63;;;7.23;;
7426;SDS011;3755;59.316;18.092;2022-12-18T05:36:53;16.33;;;8.20;;
7426;SDS011;3755;59.316;18.092;2022-12-18T05:39:34;10.90;;;6.13;;
7426;SDS011;3755;59.316;18.092;2022-12-18T05:42:04;15.47;;;7.50;;
7426;SDS011;3755;59.316;18.092;2022-12-18T05:44:31;12.53;;;4.33;;
7426;SDS011;3755;59.316;18.092;2022-12-18T05:46:59;14.43;;;7.67;;
7426;SDS011;3755;59.316;18.092;2022-12-18T05:49:27;9.47;;;5.10;;
7426;SDS011;3755;59.316;18.092;2022-12-18T05:51:54;9.90;;;5.53;;
7426;SDS011;3755;59.316;18.092;2022-12-18T05:54:22;16.90;;;8.10;;
7426;SDS011;3755;59.316;18.092;2022-12-18T05:56:50;16.53;;;8.10;;
7426;SDS011;3755;59.316;18.092;2022-12-18T05:59:19;11.43;;;6.53;;
7426;SDS011;3755;59.316;18.092;2022-12-18T06:02:00;11.13;;;6.20;;
7426;SDS011;3755;59.316;18.092;2022-12-18T06:04:27;13.80;;;7.57;;
7426;SDS011;3755;59.316;18.092;2022-12-18T06:06:56;14.33;;;7.77;;
7426;SDS011;3755;59.316;18.092;2022-12-18T06:09:25;15.23;;;7.43;;
7426;SDS011;3755;59.316;18.092;2022-12-18T06:11:52;13.60;;;7.17;;
7426;SDS011;3755;59.316;18.092;2022-12-18T06:14:22;12.20;;;6.37;;
7426;SDS011;3755;59.316;18.092;2022-12-18T06:16:50;10.23;;;5.27;;
7426;SDS011;3755;59.316;18.092;2022-12-18T06:19:20;14.03;;;7.47;;
7426;SDS011;3755;59.316;18.092;2022-12-18T06:21:57;12.57;;;7.00;;
7426;SDS011;3755;59.316;18.092;2022-12-18T06:24:35;13.60;;;7.20;;
7426;SDS011;3755;59.316;18.092;2022-12-18T06:27:04;10.50;;;4.87;;
7426;SDS011;3755;59.316;18.092;2022-12-18T06:29:33;11.33;;;6.13;;
7426;SDS011;3755;59.316;18.092;2022-12-18T06:32:05;9.63;;;5.30;;
7426;SDS011;3755;59.316;18.092;2022-12-18T06:34:34;14.00;;;6.90;;
7426;SDS011;3755;59.316;18.092;2022-12-18T06:37:12;14.83;;;7.63;;
7426;SDS011;3755;59.316;18.092;2022-12-18T06:39:39;12.40;;;7.37;;
7426;SDS011;3755;59.316;18.092;2022-12-18T06:42:20;17.10;;;7.93;;
7426;SDS011;3755;59.316;18.092;2022-12-18T06:44:53;12.20;;;6.60;;
7426;SDS011;3755;59.316;18.092;2022-12-18T06:47:31;14.33;;;7.37;;
7426;SDS011;3755;59.316;18.092;2022-12-18T06:49:58;14.10;;;7.53;;
7426;SDS011;3755;59.316;18.092;2022-12-18T06:52:26;11.03;;;6.13;;
7426;SDS011;3755;59.316;18.092;2022-12-18T06:54:53;13.40;;;6.90;;
7426;SDS011;3755;59.316;18.092;2022-12-18T06:57:23;12.60;;;7.43;;
7426;SDS011;3755;59.316;18.092;2022-12-18T07:02:52;13.37;;;6.97;;
7426;SDS011;3755;59.316;18.092;2022-12-18T07:05:20;9.60;;;4.33;;
7426;SDS011;3755;59.316;18.092;2022-12-18T07:07:52;8.83;;;5.17;;
7426;SDS011;3755;59.316;18.092;2022-12-18T07:10:24;9.67;;;5.57;;
7426;SDS011;3755;59.316;18.092;2022-12-18T07:12:52;9.37;;;6.10;;
7426;SDS011;3755;59.316;18.092;2022-12-18T07:15:19;11.20;;;5.70;;
7426;SDS011;3755;59.316;18.092;2022-12-18T07:20:50;16.47;;;8.00;;
7426;SDS011;3755;59.316;18.092;2022-12-18T07:23:18;14.13;;;7.60;;
7426;SDS011;3755;59.316;18.092;2022-12-18T07:25:46;13.23;;;7.30;;
7426;SDS011;3755;59.316;18.092;2022-12-18T07:28:13;16.03;;;7.30;;
7426;SDS011;3755;59.316;18.092;2022-12-18T07:30:50;14.07;;;6.77;;
7426;SDS011;3755;59.316;18.092;2022-12-18T07:33:43;15.37;;;8.23;;
7426;SDS011;3755;59.316;18.092;2022-12-18T07:36:15;13.23;;;7.50;;
7426;SDS011;3755;59.316;18.092;2022-12-18T07:38:44;13.33;;;7.67;;
7426;SDS011;3755;59.316;18.092;2022-12-18T07:41:15;14.40;;;7.53;;
7426;SDS011;3755;59.316;18.092;2022-12-18T07:43:56;15.00;;;8.20;;
7426;SDS011;3755;59.316;18.092;2022-12-18T07:46:24;15.57;;;8.33;;
7426;SDS011;3755;59.316;18.092;2022-12-18T07:48:54;16.17;;;8.57;;
7426;SDS011;3755;59.316;18.092;2022-12-18T07:51:22;16.37;;;7.60;;
7426;SDS011;3755;59.316;18.092;2022-12-18T07:53:50;17.00;;;8.23;;
7426;SDS011;3755;59.316;18.092;2022-12-18T07:56:18;16.73;;;8.13;;
7426;SDS011;3755;59.316;18.092;2022-12-18T07:58:46;17.30;;;9.13;;
7426;SDS011;3755;59.316;18.092;2022-12-18T08:01:14;15.50;;;8.80;;
7426;SDS011;3755;59.316;18.092;2022-12-18T08:03:41;16.07;;;8.20;;
7426;SDS011;3755;59.316;18.092;2022-12-18T08:06:14;15.43;;;8.93;;
7426;SDS011;3755;59.316;18.092;2022-12-18T08:08:45;19.87;;;10.23;;
7426;SDS011;3755;59.316;18.092;2022-12-18T08:11:27;17.60;;;8.37;;
7426;SDS011;3755;59.316;18.092;2022-12-18T08:14:00;17.57;;;8.43;;
7426;SDS011;3755;59.316;18.092;2022-12-18T08:16:28;15.23;;;7.33;;
7426;SDS011;3755;59.316;18.092;2022-12-18T08:18:58;14.20;;;7.87;;
7426;SDS011;3755;59.316;18.092;2022-12-18T08:21:30;15.90;;;8.57;;
7426;SDS011;3755;59.316;18.092;2022-12-18T08:24:00;9.90;;;6.00;;
7426;SDS011;3755;59.316;18.092;2022-12-18T08:26:41;17.07;;;8.10;;
7426;SDS011;3755;59.316;18.092;2022-12-18T08:29:09;9.67;;;6.33;;
7426;SDS011;3755;59.316;18.092;2022-12-18T08:31:42;14.63;;;7.37;;
7426;SDS011;3755;59.316;18.092;2022-12-18T08:34:15;13.27;;;7.77;;
7426;SDS011;3755;59.316;18.092;2022-12-18T08:36:47;14.17;;;8.43;;
7426;SDS011;3755;59.316;18.092;2022-12-18T08:39:15;15.30;;;6.07;;
7426;SDS011;3755;59.316;18.092;2022-12-18T08:41:44;17.33;;;8.40;;
7426;SDS011;3755;59.316;18.092;2022-12-18T08:44:33;17.67;;;7.23;;
7426;SDS011;3755;59.316;18.092;2022-12-18T08:47:07;22.43;;;9.37;;
7426;SDS011;3755;59.316;18.092;2022-12-18T08:49:49;15.80;;;9.10;;
7426;SDS011;3755;59.316;18.092;2022-12-18T08:52:22;9.13;;;5.47;;
7426;SDS011;3755;59.316;18.092;2022-12-18T08:54:51;15.93;;;8.53;;
7426;SDS011;3755;59.316;18.092;2022-12-18T08:57:18;16.47;;;8.50;;
7426;SDS011;3755;59.316;18.092;2022-12-18T08:59:48;16.47;;;9.73;;
7426;SDS011;3755;59.316;18.092;2022-12-18T09:02:15;16.10;;;8.90;;
7426;SDS011;3755;59.316;18.092;2022-12-18T09:04:46;14.13;;;8.27;;
7426;SDS011;3755;59.316;18.092;2022-12-18T09:07:13;17.20;;;8.73;;
7426;SDS011;3755;59.316;18.092;2022-12-18T09:09:54;12.83;;;7.03;;
7426;SDS011;3755;59.316;18.092;2022-12-18T09:12:23;14.17;;;8.53;;
7426;SDS011;3755;59.316;18.092;2022-12-18T09:14:53;14.77;;;8.27;;
7426;SDS011;3755;59.316;18.092;2022-12-18T09:17:21;16.30;;;8.13;;
7426;SDS011;3755;59.316;18.092;2022-12-18T09:19:51;16.07;;;8.73;;
7426;SDS011;3755;59.316;18.092;2022-12-18T09:22:18;14.77;;;8.03;;
7426;SDS011;3755;59.316;18.092;2022-12-18T09:24:50;14.03;;;8.57;;
7426;SDS011;3755;59.316;18.092;2022-12-18T09:27:51;14.87;;;8.00;;
7426;SDS011;3755;59.316;18.092;2022-12-18T09:30:20;15.57;;;8.27;;
7426;SDS011;3755;59.316;18.092;2022-12-18T09:33:00;14.23;;;7.50;;
7426;SDS011;3755;59.316;18.092;2022-12-18T09:35:46;17.20;;;8.57;;
7426;SDS011;3755;59.316;18.092;2022-12-18T09:38:35;10.33;;;5.30;;
7426;SDS011;3755;59.316;18.092;2022-12-18T09:41:30;17.87;;;8.30;;
7426;SDS011;3755;59.316;18.092;2022-12-18T09:44:17;10.13;;;5.13;;
7426;SDS011;3755;59.316;18.092;2022-12-18T09:46:56;12.53;;;7.43;;
7426;SDS011;3755;59.316;18.092;2022-12-18T09:49:32;11.90;;;7.37;;
7426;SDS011;3755;59.316;18.092;2022-12-18T09:52:05;8.33;;;5.10;;
7426;SDS011;3755;59.316;18.092;2022-12-18T09:54:53;12.23;;;7.83;;
7426;SDS011;3755;59.316;18.092;2022-12-18T09:57:25;14.80;;;7.23;;
7426;SDS011;3755;59.316;18.092;2022-12-18T09:59:55;13.30;;;7.13;;
7426;SDS011;3755;59.316;18.092;2022-12-18T10:02:26;12.00;;;6.87;;
7426;SDS011;3755;59.316;18.092;2022-12-18T10:05:11;12.67;;;6.73;;
7426;SDS011;3755;59.316;18.092;2022-12-18T10:07:52;13.67;;;6.97;;
7426;SDS011;3755;59.316;18.092;2022-12-18T10:10:31;14.53;;;7.03;;
7426;SDS011;3755;59.316;18.092;2022-12-18T10:13:15;15.17;;;7.40;;
7426;SDS011;3755;59.316;18.092;2022-12-18T10:15:53;15.47;;;7.37;;
7426;SDS011;3755;59.316;18.092;2022-12-18T10:18:32;11.40;;;6.40;;
7426;SDS011;3755;59.316;18.092;2022-12-18T10:21:30;12.73;;;7.60;;
7426;SDS011;3755;59.316;18.092;2022-12-18T10:24:04;13.10;;;7.47;;
7426;SDS011;3755;59.316;18.092;2022-12-18T10:26:41;19.37;;;5.37;;
7426;SDS011;3755;59.316;18.092;2022-12-18T10:29:26;16.57;;;7.27;;
7426;SDS011;3755;59.316;18.092;2022-12-18T10:31:53;14.10;;;8.27;;
7426;SDS011;3755;59.316;18.092;2022-12-18T10:34:23;12.27;;;7.10;;
7426;SDS011;3755;59.316;18.092;2022-12-18T10:36:51;16.20;;;7.87;;
7426;SDS011;3755;59.316;18.092;2022-12-18T10:39:19;15.63;;;8.17;;
7426;SDS011;3755;59.316;18.092;2022-12-18T10:42:09;10.40;;;5.97;;
7426;SDS011;3755;59.316;18.092;2022-12-18T10:44:45;11.40;;;5.10;;
7426;SDS011;3755;59.316;18.092;2022-12-18T10:47:42;15.63;;;7.43;;
7426;SDS011;3755;59.316;18.092;2022-12-18T10:50:20;17.20;;;7.60;;
7426;SDS011;3755;59.316;18.092;2022-12-18T10:53:03;8.10;;;4.67;;
7426;SDS011;3755;59.316;18.092;2022-12-18T10:55:32;11.73;;;7.07;;
7426;SDS011;3755;59.316;18.092;2022-12-18T10:58:20;15.50;;;8.30;;
7426;SDS011;3755;59.316;18.092;2022-12-18T11:01:05;15.37;;;8.30;;
7426;SDS011;3755;59.316;18.092;2022-12-18T11:03:35;14.47;;;7.33;;
7426;SDS011;3755;59.316;18.092;2022-12-18T11:06:06;13.23;;;6.80;;
7426;SDS011;3755;59.316;18.092;2022-12-18T11:08:34;9.97;;;5.03;;
7426;SDS011;3755;59.316;18.092;2022-12-18T11:11:02;8.73;;;5.77;;
7426;SDS011;3755;59.316;18.092;2022-12-18T11:13:34;12.07;;;6.27;;
7426;SDS011;3755;59.316;18.092;2022-12-18T11:16:01;14.17;;;9.17;;
7426;SDS011;3755;59.316;18.092;2022-12-18T11:18:30;13.03;;;7.17;;
7426;SDS011;3755;59.316;18.092;2022-12-18T11:21:05;9.00;;;4.97;;
7426;SDS011;3755;59.316;18.092;2022-12-18T11:23:37;12.37;;;8.17;;
7426;SDS011;3755;59.316;18.092;2022-12-18T11:26:14;11.77;;;6.20;;
7426;SDS011;3755;59.316;18.092;2022-12-18T11:28:43;13.07;;;6.43;;
7426;SDS011;3755;59.316;18.092;2022-12-18T11:31:18;13.63;;;7.90;;
7426;SDS011;3755;59.316;18.092;2022-12-18T11:33:59;7.67;;;5.10;;
7426;SDS011;3755;59.316;18.092;2022-12-18T11:36:37;15.37;;;7.73;;
7426;SDS011;3755;59.316;18.092;2022-12-18T11:39:10;11.43;;;5.87;;
7426;SDS011;3755;59.316;18.092;2022-12-18T11:41:47;8.67;;;5.67;;
7426;SDS011;3755;59.316;18.092;2022-12-18T11:44:50;13.40;;;7.10;;
7426;SDS011;3755;59.316;18.092;2022-12-18T11:47:23;13.83;;;7.87;;
7426;SDS011;3755;59.316;18.092;2022-12-18T11:50:01;12.87;;;7.07;;
7426;SDS011;3755;59.316;18.092;2022-12-18T11:52:43;13.67;;;7.37;;
7426;SDS011;3755;59.316;18.092;2022-12-18T11:55:12;14.23;;;7.50;;
7426;SDS011;3755;59.316;18.092;2022-12-18T11:57:44;9.43;;;5.83;;
7426;SDS011;3755;59.316;18.092;2022-12-18T12:00:22;11.83;;;7.43;;
7426;SDS011;3755;59.316;18.092;2022-12-18T12:03:03;12.53;;;6.73;;
7426;SDS011;3755;59.316;18.092;2022-12-18T12:05:49;11.43;;;5.90;;
7426;SDS011;3755;59.316;18.092;2022-12-18T12:08:30;9.50;;;5.13;;
7426;SDS011;3755;59.316;18.092;2022-12-18T12:11:09;10.67;;;6.53;;
7426;SDS011;3755;59.316;18.092;2022-12-18T12:13:45;16.30;;;6.93;;
7426;SDS011;3755;59.316;18.092;2022-12-18T12:16:21;16.97;;;7.77;;
7426;SDS011;3755;59.316;18.092;2022-12-18T12:19:06;13.13;;;6.93;;
7426;SDS011;3755;59.316;18.092;2022-12-18T12:21:52;13.73;;;6.87;;
7426;SDS011;3755;59.316;18.092;2022-12-18T12:24:49;13.90;;;7.10;;
7426;SDS011;3755;59.316;18.092;2022-12-18T12:27:40;10.83;;;6.13;;
7426;SDS011;3755;59.316;18.092;2022-12-18T12:30:20;12.63;;;6.50;;
7426;SDS011;3755;59.316;18.092;2022-12-18T12:33:02;16.07;;;7.50;;
7426;SDS011;3755;59.316;18.092;2022-12-18T12:35:46;5.23;;;3.80;;
7426;SDS011;3755;59.316;18.092;2022-12-18T12:38:23;11.70;;;6.67;;
7426;SDS011;3755;59.316;18.092;2022-12-18T12:41:09;15.27;;;7.73;;
7426;SDS011;3755;59.316;18.092;2022-12-18T12:43:54;12.40;;;6.27;;
7426;SDS011;3755;59.316;18.092;2022-12-18T12:46:41;11.97;;;7.93;;
7426;SDS011;3755;59.316;18.092;2022-12-18T12:49:14;13.40;;;7.10;;
7426;SDS011;3755;59.316;18.092;2022-12-18T12:52:03;13.37;;;7.23;;
7426;SDS011;3755;59.316;18.092;2022-12-18T12:54:50;11.20;;;7.40;;
7426;SDS011;3755;59.316;18.092;2022-12-18T12:57:29;17.13;;;8.60;;
7426;SDS011;3755;59.316;18.092;2022-12-18T13:00:15;13.10;;;6.80;;
7426;SDS011;3755;59.316;18.092;2022-12-18T13:02:49;14.57;;;6.83;;
7426;SDS011;3755;59.316;18.092;2022-12-18T13:05:24;15.77;;;8.00;;
7426;SDS011;3755;59.316;18.092;2022-12-18T13:07:59;12.67;;;6.77;;
7426;SDS011;3755;59.316;18.092;2022-12-18T13:10:47;17.33;;;7.13;;
7426;SDS011;3755;59.316;18.092;2022-12-18T13:13:28;13.77;;;5.87;;
7426;SDS011;3755;59.316;18.092;2022-12-18T13:16:29;10.57;;;6.20;;
7426;SDS011;3755;59.316;18.092;2022-12-18T13:19:18;11.90;;;7.00;;
7426;SDS011;3755;59.316;18.092;2022-12-18T13:22:12;15.70;;;6.33;;
7426;SDS011;3755;59.316;18.092;2022-12-18T13:25:31;8.57;;;4.17;;
7426;SDS011;3755;59.316;18.092;2022-12-18T13:34:50;10.17;;;5.57;;
7426;SDS011;3755;59.316;18.092;2022-12-18T13:38:19;11.87;;;5.23;;
7426;SDS011;3755;59.316;18.092;2022-12-18T13:40:54;9.00;;;5.00;;
7426;SDS011;3755;59.316;18.092;2022-12-18T13:43:41;12.93;;;6.03;;
7426;SDS011;3755;59.316;18.092;2022-12-18T13:46:24;12.10;;;4.90;;
7426;SDS011;3755;59.316;18.092;2022-12-18T13:49:17;13.30;;;5.33;;
7426;SDS011;3755;59.316;18.092;2022-12-18T13:52:03;11.57;;;5.63;;
7426;SDS011;3755;59.316;18.092;2022-12-18T13:54:50;12.33;;;5.63;;
7426;SDS011;3755;59.316;18.092;2022-12-18T13:57:33;10.70;;;5.00;;
7426;SDS011;3755;59.316;18.092;2022-12-18T14:00:22;12.33;;;5.03;;
7426;SDS011;3755;59.316;18.092;2022-12-18T14:03:15;14.20;;;5.80;;
7426;SDS011;3755;59.316;18.092;2022-12-18T14:06:06;12.83;;;6.10;;
7426;SDS011;3755;59.316;18.092;2022-12-18T14:08:58;12.00;;;5.87;;
7426;SDS011;3755;59.316;18.092;2022-12-18T14:11:39;13.17;;;5.17;;
7426;SDS011;3755;59.316;18.092;2022-12-18T14:14:20;11.60;;;5.50;;
7426;SDS011;3755;59.316;18.092;2022-12-18T14:17:02;9.47;;;4.87;;
7426;SDS011;3755;59.316;18.092;2022-12-18T14:19:49;9.50;;;4.83;;
7426;SDS011;3755;59.316;18.092;2022-12-18T14:29:35;13.50;;;5.90;;
7426;SDS011;3755;59.316;18.092;2022-12-18T14:32:24;11.13;;;5.07;;
7426;SDS011;3755;59.316;18.092;2022-12-18T14:35:12;7.33;;;4.37;;
7426;SDS011;3755;59.316;18.092;2022-12-18T14:38:09;11.70;;;4.80;;
7426;SDS011;3755;59.316;18.092;2022-12-18T14:41:15;9.57;;;4.30;;
7426;SDS011;3755;59.316;18.092;2022-12-18T14:44:04;9.93;;;4.87;;
7426;SDS011;3755;59.316;18.092;2022-12-18T14:53:39;10.90;;;4.27;;
7426;SDS011;3755;59.316;18.092;2022-12-18T14:56:34;9.30;;;4.40;;
7426;SDS011;3755;59.316;18.092;2022-12-18T14:59:26;9.23;;;3.63;;
7426;SDS011;3755;59.316;18.092;2022-12-18T15:02:13;10.40;;;4.53;;
7426;SDS011;3755;59.316;18.092;2022-12-18T15:05:15;9.47;;;4.47;;
7426;SDS011;3755;59.316;18.092;2022-12-18T15:07:59;11.30;;;5.00;;
7426;SDS011;3755;59.316;18.092;2022-12-18T15:10:47;8.90;;;4.23;;
7426;SDS011;3755;59.316;18.092;2022-12-18T15:13:19;9.47;;;5.07;;
7426;SDS011;3755;59.316;18.092;2022-12-18T15:16:07;10.47;;;4.67;;
7426;SDS011;3755;59.316;18.092;2022-12-18T15:18:47;8.97;;;4.70;;
7426;SDS011;3755;59.316;18.092;2022-12-18T15:21:18;11.43;;;4.37;;
7426;SDS011;3755;59.316;18.092;2022-12-18T15:23:47;9.73;;;5.20;;
7426;SDS011;3755;59.316;18.092;2022-12-18T15:36:04;10.67;;;3.80;;
7426;SDS011;3755;59.316;18.092;2022-12-18T15:38:54;7.33;;;3.77;;
7426;SDS011;3755;59.316;18.092;2022-12-18T15:41:58;6.97;;;3.30;;
7426;SDS011;3755;59.316;18.092;2022-12-18T15:44:46;11.93;;;4.23;;
7426;SDS011;3755;59.316;18.092;2022-12-18T15:57:28;12.93;;;4.00;;
7426;SDS011;3755;59.316;18.092;2022-12-18T16:00:00;9.03;;;3.70;;
7426;SDS011;3755;59.316;18.092;2022-12-18T16:02:47;9.87;;;3.37;;
7426;SDS011;3755;59.316;18.092;2022-12-18T16:05:19;7.90;;;3.30;;
7426;SDS011;3755;59.316;18.092;2022-12-18T16:07:52;8.70;;;3.23;;
7426;SDS011;3755;59.316;18.092;2022-12-18T16:10:21;6.63;;;3.60;;
7426;SDS011;3755;59.316;18.092;2022-12-18T16:12:51;6.57;;;2.80;;
7426;SDS011;3755;59.316;18.092;2022-12-18T16:15:19;8.07;;;3.27;;
7426;SDS011;3755;59.316;18.092;2022-12-18T16:17:49;6.97;;;2.40;;
7426;SDS011;3755;59.316;18.092;2022-12-18T16:20:19;11.47;;;4.33;;
7426;SDS011;3755;59.316;18.092;2022-12-18T16:22:48;9.63;;;3.07;;
7426;SDS011;3755;59.316;18.092;2022-12-18T16:25:22;5.07;;;2.57;;
7426;SDS011;3755;59.316;18.092;2022-12-18T16:27:55;10.83;;;3.07;;
7426;SDS011;3755;59.316;18.092;2022-12-18T16:30:37;12.03;;;3.43;;
7426;SDS011;3755;59.316;18.092;2022-12-18T16:33:05;8.27;;;3.10;;
7426;SDS011;3755;59.316;18.092;2022-12-18T16:35:35;13.03;;;3.33;;